Wetterdaten: Montag, 19.02.2007
Datum Zeit Temp. A. Feuchte A. Luftdruck Regen Wind Richtung Richtung Sonnenschein UV Solar Windben
19.02.2007 00:00 4,3 C 90 % 1015,9 hPa 0,0 mm 0,2 km/h (0 Bft) S-SW 198 0 min 0 UV-I 0 W/m 1,6 km/h (1 Bft)
19.02.2007 00:15 4,3 C 89 % 1015,7 hPa 0,0 mm 0,0 km/h (0 Bft) SW 234 0 min 0 UV-I 0 W/m 0,0 km/h (0 Bft)
19.02.2007 00:20 4,3 C 89 % 1015,8 hPa 0,0 mm 0,1 km/h (0 Bft) SW 233 0 min 0 UV-I 0 W/m 1,6 km/h (1 Bft)
19.02.2007 00:25 4,3 C 89 % 1015,8 hPa 0,0 mm 0,0 km/h (0 Bft) SW 233 0 min 0 UV-I 0 W/m 0,0 km/h (0 Bft)
19.02.2007 00:30 4,3 C 89 % 1015,9 hPa 0,0 mm 0,0 km/h (0 Bft) SW 225 0 min 0 UV-I 0 W/m 1,6 km/h (1 Bft)
19.02.2007 00:40 4,3 C 89 % 1015,9 hPa 0,0 mm 0,0 km/h (0 Bft) N 0 0 min 0 UV-I 0 W/m 0,0 km/h (0 Bft)
19.02.2007 00:50 4,2 C 89 % 1015,8 hPa 0,0 mm 0,0 km/h (0 Bft) N 0 0 min 0 UV-I 0 W/m 0,0 km/h (0 Bft)
19.02.2007 01:00 4,2 C 89 % 1015,7 hPa 0,0 mm 0,0 km/h (0 Bft) N 0 0 min 0 UV-I 0 W/m 0,0 km/h (0 Bft)
19.02.2007 01:10 4,2 C 89 % 1015,7 hPa 0,0 mm 0,0 km/h (0 Bft) N 0 0 min 0 UV-I 0 W/m 0,0 km/h (0 Bft)
19.02.2007 01:20 4,2 C 89 % 1015,8 hPa 0,0 mm 0,0 km/h (0 Bft) N 0 0 min 0 UV-I 0 W/m 0,0 km/h (0 Bft)
19.02.2007 01:30 4,2 C 89 % 1015,7 hPa 0,0 mm 0,0 km/h (0 Bft) N 0 0 min 0 UV-I 0 W/m 0,0 km/h (0 Bft)
19.02.2007 01:40 4,2 C 90 % 1015,7 hPa 0,0 mm 0,0 km/h (0 Bft) SW 225 0 min 0 UV-I 0 W/m 1,6 km/h (1 Bft)
19.02.2007 01:50 4,2 C 89 % 1015,5 hPa 0,0 mm 0,0 km/h (0 Bft) SW 225 0 min 0 UV-I 0 W/m 1,6 km/h (1 Bft)
19.02.2007 02:00 4,2 C 89 % 1015,6 hPa 0,0 mm 0,0 km/h (0 Bft) N 0 0 min 0 UV-I 0 W/m 0,0 km/h (0 Bft)
19.02.2007 02:10 4,2 C 89 % 1015,8 hPa 0,0 mm 0,0 km/h (0 Bft) N 0 0 min 0 UV-I 0 W/m 0,0 km/h (0 Bft)
19.02.2007 02:20 4,1 C 89 % 1015,7 hPa 0,0 mm 0,0 km/h (0 Bft) N 0 0 min 0 UV-I 0 W/m 0,0 km/h (0 Bft)
19.02.2007 02:30 4,1 C 89 % 1015,7 hPa 0,0 mm 0,0 km/h (0 Bft) N 0 0 min 0 UV-I 0 W/m 0,0 km/h (0 Bft)
19.02.2007 02:40 4,1 C 89 % 1015,6 hPa 0,0 mm 0,0 km/h (0 Bft) N 0 0 min 0 UV-I 0 W/m 0,0 km/h (0 Bft)
19.02.2007 02:50 4,1 C 89 % 1015,4 hPa 0,0 mm 0,0 km/h (0 Bft) N 0 0 min 0 UV-I 0 W/m 0,0 km/h (0 Bft)
19.02.2007 03:00 4,1 C 89 % 1015,5 hPa 0,0 mm 0,0 km/h (0 Bft) SW 225 0 min 0 UV-I 0 W/m 1,6 km/h (1 Bft)
19.02.2007 03:10 4,1 C 89 % 1015,5 hPa 0,0 mm 0,0 km/h (0 Bft) N 0 0 min 0 UV-I 0 W/m 0,0 km/h (0 Bft)
19.02.2007 03:20 4,1 C 90 % 1015,6 hPa 0,0 mm 0,0 km/h (0 Bft) N 0 0 min 0 UV-I 0 W/m 0,0 km/h (0 Bft)
19.02.2007 03:30 4,0 C 89 % 1015,6 hPa 0,0 mm 0,0 km/h (0 Bft) N 0 0 min 0 UV-I 0 W/m 0,0 km/h (0 Bft)
19.02.2007 03:40 4,0 C 90 % 1015,5 hPa 0,0 mm 0,0 km/h (0 Bft) N 0 0 min 0 UV-I 0 W/m 0,0 km/h (0 Bft)
19.02.2007 03:50 3,9 C 90 % 1015,5 hPa 0,0 mm 0,0 km/h (0 Bft) N 0 0 min 0 UV-I 0 W/m 0,0 km/h (0 Bft)
19.02.2007 04:00 3,9 C 90 % 1015,6 hPa 0,0 mm 0,0 km/h (0 Bft) N 0 0 min 0 UV-I 0 W/m 0,0 km/h (0 Bft)
19.02.2007 04:10 3,9 C 90 % 1015,7 hPa 0,0 mm 0,0 km/h (0 Bft) N 0 0 min 0 UV-I 0 W/m 0,0 km/h (0 Bft)
19.02.2007 04:20 3,9 C 90 % 1015,7 hPa 0,0 mm 0,0 km/h (0 Bft) N 0 0 min 0 UV-I 0 W/m 0,0 km/h (0 Bft)
19.02.2007 04:30 3,9 C 90 % 1015,7 hPa 0,0 mm 0,0 km/h (0 Bft) N 0 0 min 0 UV-I 0 W/m 0,0 km/h (0 Bft)
19.02.2007 04:40 3,9 C 90 % 1015,8 hPa 0,0 mm 0,0 km/h (0 Bft) N 0 0 min 0 UV-I 0 W/m 0,0 km/h (0 Bft)
19.02.2007 04:50 3,9 C 90 % 1015,8 hPa 0,0 mm 0,0 km/h (0 Bft) N 0 0 min 0 UV-I 0 W/m 0,0 km/h (0 Bft)
19.02.2007 05:00 3,8 C 90 % 1015,7 hPa 0,0 mm 0,0 km/h (0 Bft) N 0 0 min 0 UV-I 0 W/m 0,0 km/h (0 Bft)
19.02.2007 05:10 3,8 C 90 % 1015,6 hPa 0,0 mm 0,0 km/h (0 Bft) N 0 0 min 0 UV-I 0 W/m 0,0 km/h (0 Bft)
19.02.2007 05:20 3,8 C 90 % 1015,6 hPa 0,0 mm 0,0 km/h (0 Bft) N 0 0 min 0 UV-I 0 W/m 0,0 km/h (0 Bft)
19.02.2007 05:30 3,8 C 90 % 1015,7 hPa 0,0 mm 0,0 km/h (0 Bft) N 0 0 min 0 UV-I 0 W/m 0,0 km/h (0 Bft)
19.02.2007 05:40 3,8 C 90 % 1015,8 hPa 0,0 mm 0,0 km/h (0 Bft) N 0 0 min 0 UV-I 0 W/m 0,0 km/h (0 Bft)
19.02.2007 05:50 3,8 C 90 % 1015,9 hPa 0,0 mm 0,0 km/h (0 Bft) N 0 0 min 0 UV-I 0 W/m 0,0 km/h (0 Bft)
19.02.2007 06:00 3,8 C 90 % 1015,9 hPa 0,0 mm 0,0 km/h (0 Bft) N 0 0 min 0 UV-I 0 W/m 0,0 km/h (0 Bft)
19.02.2007 06:10 3,8 C 90 % 1015,9 hPa 0,0 mm 0,0 km/h (0 Bft) SW 225 0 min 0 UV-I 0 W/m 1,6 km/h (1 Bft)
19.02.2007 06:20 3,8 C 90 % 1015,9 hPa 0,0 mm 0,0 km/h (0 Bft) SW 225 0 min 0 UV-I 0 W/m 1,6 km/h (1 Bft)
19.02.2007 06:30 3,8 C 90 % 1015,8 hPa 0,0 mm 0,0 km/h (0 Bft) S-SW 202 0 min 0 UV-I 0 W/m 1,6 km/h (1 Bft)
19.02.2007 06:40 3,8 C 90 % 1015,9 hPa 0,0 mm 0,0 km/h (0 Bft) N 0 0 min 0 UV-I 0 W/m 0,0 km/h (0 Bft)
19.02.2007 06:50 3,7 C 90 % 1016,0 hPa 0,0 mm 0,0 km/h (0 Bft) N 0 0 min 0 UV-I 0 W/m 0,0 km/h (0 Bft)
19.02.2007 07:00 3,7 C 90 % 1016,0 hPa 0,0 mm 0,0 km/h (0 Bft) N 0 0 min 0 UV-I 0 W/m 0,0 km/h (0 Bft)
19.02.2007 07:10 3,7 C 90 % 1015,9 hPa 0,0 mm 0,0 km/h (0 Bft) N 0 0 min 0 UV-I 0 W/m 0,0 km/h (0 Bft)
19.02.2007 07:20 3,7 C 90 % 1016,1 hPa 0,0 mm 0,0 km/h (0 Bft) N 0 0 min 0 UV-I 0 W/m 0,0 km/h (0 Bft)
19.02.2007 07:30 3,6 C 90 % 1016,1 hPa 0,0 mm 0,0 km/h (0 Bft) N 0 0 min 0 UV-I 0 W/m 0,0 km/h (0 Bft)
19.02.2007 07:40 3,6 C 90 % 1016,1 hPa 0,0 mm 0,0 km/h (0 Bft) N 0 0 min 0 UV-I 0 W/m 0,0 km/h (0 Bft)
19.02.2007 07:50 3,6 C 91 % 1016,1 hPa 0,0 mm 0,0 km/h (0 Bft) N 0 0 min 0 UV-I 5 W/m 0,0 km/h (0 Bft)
19.02.2007 08:00 3,6 C 91 % 1016,0 hPa 0,0 mm 0,0 km/h (0 Bft) N 0 0 min 0 UV-I 9 W/m 0,0 km/h (0 Bft)
19.02.2007 08:10 3,5 C 91 % 1016,0 hPa 0,0 mm 0,0 km/h (0 Bft) N 0 0 min 0 UV-I 12 W/m 0,0 km/h (0 Bft)
19.02.2007 08:20 3,6 C 91 % 1016,0 hPa 0,0 mm 0,0 km/h (0 Bft) N 0 0 min 0 UV-I 21 W/m 0,0 km/h (0 Bft)
19.02.2007 08:30 3,6 C 91 % 1016,0 hPa 0,0 mm 0,0 km/h (0 Bft) N 0 0 min 0 UV-I 35 W/m 0,0 km/h (0 Bft)
19.02.2007 08:40 3,6 C 92 % 1016,1 hPa 0,0 mm 0,0 km/h (0 Bft) N 0 0 min 0 UV-I 40 W/m 0,0 km/h (0 Bft)
19.02.2007 08:50 3,7 C 91 % 1016,1 hPa 0,0 mm 0,0 km/h (0 Bft) N 0 0 min 0 UV-I 54 W/m 0,0 km/h (0 Bft)
19.02.2007 09:00 3,8 C 91 % 1016,1 hPa 0,0 mm 0,0 km/h (0 Bft) S-SW 202 0 min 0 UV-I 62 W/m 1,6 km/h (1 Bft)
19.02.2007 09:10 3,9 C 90 % 1016,0 hPa 0,0 mm 0,0 km/h (0 Bft) S-SW 202 0 min 0 UV-I 74 W/m 1,6 km/h (1 Bft)
19.02.2007 09:20 4,0 C 90 % 1016,0 hPa 0,0 mm 0,0 km/h (0 Bft) S-SW 202 0 min 0 UV-I 86 W/m 1,6 km/h (1 Bft)
19.02.2007 09:30 4,2 C 89 % 1015,8 hPa 0,0 mm 0,0 km/h (0 Bft) S-SW 202 0 min 0 UV-I 114 W/m 1,6 km/h (1 Bft)
19.02.2007 09:40 4,4 C 88 % 1015,7 hPa 0,0 mm 0,0 km/h (0 Bft) S-SW 202 0 min 0 UV-I 137 W/m 1,6 km/h (1 Bft)
19.02.2007 09:50 4,5 C 88 % 1015,8 hPa 0,0 mm 0,0 km/h (0 Bft) S-SW 202 0 min 0 UV-I 139 W/m 1,6 km/h (1 Bft)
19.02.2007 10:00 4,5 C 88 % 1015,6 hPa 0,0 mm 0,0 km/h (0 Bft) S-SW 202 10 min 1 UV-I 272 W/m 1,6 km/h (1 Bft)
19.02.2007 10:10 4,9 C 87 % 1015,7 hPa 0,0 mm 0,0 km/h (0 Bft) SO 135 10 min 1 UV-I 366 W/m 1,6 km/h (1 Bft)
19.02.2007 10:20 5,4 C 81 % 1015,5 hPa 0,0 mm 0,0 km/h (0 Bft) O-NO 67 10 min 1 UV-I 371 W/m 3,2 km/h (1 Bft)
19.02.2007 10:30 5,8 C 76 % 1015,4 hPa 0,0 mm 0,0 km/h (0 Bft) O 90 10 min 1 UV-I 320 W/m 4,8 km/h (1 Bft)
19.02.2007 10:40 5,7 C 77 % 1015,4 hPa 0,0 mm 0,0 km/h (0 Bft) O 90 10 min 1 UV-I 225 W/m 3,2 km/h (1 Bft)
19.02.2007 10:50 5,6 C 73 % 1015,3 hPa 0,0 mm 0,0 km/h (0 Bft) O-NO 67 10 min 1 UV-I 346 W/m 4,8 km/h (1 Bft)
19.02.2007 11:00 5,8 C 68 % 1015,3 hPa 0,0 mm 0,0 km/h (0 Bft) O-NO 67 0 min 1 UV-I 211 W/m 3,2 km/h (1 Bft)
19.02.2007 11:10 5,8 C 67 % 1015,2 hPa 0,0 mm 0,0 km/h (0 Bft) O-NO 67 0 min 1 UV-I 204 W/m 3,2 km/h (1 Bft)
19.02.2007 11:20 5,9 C 68 % 1015,3 hPa 0,0 mm 0,0 km/h (0 Bft) O-NO 67 0 min 1 UV-I 197 W/m 1,6 km/h (1 Bft)
19.02.2007 11:30 6,1 C 64 % 1015,4 hPa 0,0 mm 0,0 km/h (0 Bft) O 90 10 min 1 UV-I 244 W/m 3,2 km/h (1 Bft)
19.02.2007 11:40 6,2 C 62 % 1015,4 hPa 0,0 mm 1,6 km/h (1 Bft) O 90 0 min 1 UV-I 232 W/m 6,4 km/h (2 Bft)
19.02.2007 11:50 6,3 C 61 % 1015,4 hPa 0,0 mm 0,0 km/h (0 Bft) O 90 0 min 1 UV-I 237 W/m 3,2 km/h (1 Bft)
19.02.2007 12:00 6,3 C 61 % 1015,3 hPa 0,0 mm 0,0 km/h (0 Bft) SO 135 0 min 1 UV-I 206 W/m 3,2 km/h (1 Bft)
19.02.2007 12:10 6,2 C 59 % 1015,3 hPa 0,0 mm 0,0 km/h (0 Bft) SO 135 0 min 1 UV-I 167 W/m 3,2 km/h (1 Bft)
19.02.2007 12:20 6,2 C 60 % 1015,2 hPa 0,0 mm 0,0 km/h (0 Bft) SO 135 0 min 1 UV-I 244 W/m 1,6 km/h (1 Bft)
19.02.2007 12:30 6,4 C 59 % 1015,2 hPa 0,0 mm 0,0 km/h (0 Bft) O 90 0 min 1 UV-I 250 W/m 4,8 km/h (1 Bft)
19.02.2007 12:40 6,3 C 60 % 1014,8 hPa 0,0 mm 0,0 km/h (0 Bft) O 90 0 min 1 UV-I 218 W/m 3,2 km/h (1 Bft)
19.02.2007 12:50 6,3 C 59 % 1014,7 hPa 0,0 mm 0,0 km/h (0 Bft) S-SW 202 0 min 1 UV-I 204 W/m 3,2 km/h (1 Bft)
19.02.2007 13:00 6,4 C 59 % 1014,5 hPa 0,0 mm 1,6 km/h (1 Bft) O 90 10 min 1 UV-I 260 W/m 4,8 km/h (1 Bft)
19.02.2007 13:10 6,8 C 58 % 1014,3 hPa 0,0 mm 1,6 km/h (1 Bft) O 90 10 min 1 UV-I 288 W/m 4,8 km/h (1 Bft)
19.02.2007 13:20 6,7 C 59 % 1014,3 hPa 0,0 mm 1,6 km/h (1 Bft) W 270 0 min 1 UV-I 192 W/m 8,0 km/h (2 Bft)
19.02.2007 13:30 6,7 C 60 % 1014,0 hPa 0,0 mm 0,0 km/h (0 Bft) O-SO 112 0 min 1 UV-I 197 W/m 3,2 km/h (1 Bft)
19.02.2007 13:40 6,8 C 58 % 1014,0 hPa 0,0 mm 1,6 km/h (1 Bft) W-SW 247 0 min 1 UV-I 171 W/m 4,8 km/h (1 Bft)
19.02.2007 13:50 6,7 C 60 % 1013,9 hPa 0,0 mm 0,0 km/h (0 Bft) W-SW 247 0 min 1 UV-I 211 W/m 4,8 km/h (1 Bft)
19.02.2007 14:00 6,7 C 57 % 1013,7 hPa 0,0 mm 0,0 km/h (0 Bft) SW 225 0 min 1 UV-I 221 W/m 4,8 km/h (1 Bft)
19.02.2007 14:10 6,8 C 57 % 1013,5 hPa 0,0 mm 0,0 km/h (0 Bft) S-SW 202 10 min 1 UV-I 227 W/m 3,2 km/h (1 Bft)
19.02.2007 14:20 6,8 C 60 % 1013,5 hPa 0,0 mm 0,0 km/h (0 Bft) S 180 10 min 1 UV-I 243 W/m 3,2 km/h (1 Bft)
19.02.2007 14:30 6,9 C 57 % 1013,3 hPa 0,0 mm 0,0 km/h (0 Bft) O-NO 67 10 min 1 UV-I 234 W/m 4,8 km/h (1 Bft)
19.02.2007 14:40 7,0 C 58 % 1013,3 hPa 0,0 mm 1,6 km/h (1 Bft) O 90 0 min 1 UV-I 195 W/m 4,8 km/h (1 Bft)
19.02.2007 14:50 6,8 C 59 % 1013,2 hPa 0,0 mm 0,0 km/h (0 Bft) O-SO 112 0 min 1 UV-I 183 W/m 3,2 km/h (1 Bft)
19.02.2007 15:00 6,8 C 58 % 1013,2 hPa 0,0 mm 0,0 km/h (0 Bft) O 90 0 min 1 UV-I 172 W/m 4,8 km/h (1 Bft)
19.02.2007 15:10 6,8 C 59 % 1013,0 hPa 0,0 mm 0,0 km/h (0 Bft) O 90 10 min 1 UV-I 190 W/m 1,6 km/h (1 Bft)
19.02.2007 15:20 6,9 C 59 % 1012,9 hPa 0,0 mm 0,0 km/h (0 Bft) O-NO 67 10 min 1 UV-I 209 W/m 3,2 km/h (1 Bft)
19.02.2007 15:30 7,0 C 59 % 1012,8 hPa 0,0 mm 0,0 km/h (0 Bft) O 90 10 min 1 UV-I 211 W/m 3,2 km/h (1 Bft)
19.02.2007 15:40 7,0 C 59 % 1012,8 hPa 0,0 mm 0,0 km/h (0 Bft) O 90 10 min 0 UV-I 174 W/m 4,8 km/h (1 Bft)
19.02.2007 15:50 7,0 C 60 % 1012,8 hPa 0,0 mm 1,6 km/h (1 Bft) O 90 10 min 0 UV-I 190 W/m 6,4 km/h (2 Bft)
19.02.2007 16:00 7,1 C 60 % 1012,8 hPa 0,0 mm 0,0 km/h (0 Bft) O 90 10 min 0 UV-I 158 W/m 4,8 km/h (1 Bft)
19.02.2007 16:10 7,0 C 59 % 1012,7 hPa 0,0 mm 0,0 km/h (0 Bft) O 90 10 min 0 UV-I 128 W/m 3,2 km/h (1 Bft)
19.02.2007 16:20 6,8 C 60 % 1012,7 hPa 0,0 mm 1,6 km/h (1 Bft) O 90 0 min 0 UV-I 104 W/m 4,8 km/h (1 Bft)
19.02.2007 16:30 6,7 C 61 % 1012,7 hPa 0,0 mm 1,6 km/h (1 Bft) O 90 0 min 0 UV-I 93 W/m 4,8 km/h (1 Bft)
19.02.2007 16:40 6,7 C 61 % 1012,6 hPa 0,0 mm 0,0 km/h (0 Bft) O 90 10 min 0 UV-I 86 W/m 4,8 km/h (1 Bft)
19.02.2007 16:50 6,6 C 62 % 1012,7 hPa 0,0 mm 1,6 km/h (1 Bft) O 90 10 min 0 UV-I 70 W/m 4,8 km/h (1 Bft)
19.02.2007 17:00 6,4 C 62 % 1012,8 hPa 0,0 mm 1,6 km/h (1 Bft) O 90 0 min 0 UV-I 54 W/m 4,8 km/h (1 Bft)
19.02.2007 17:10 6,2 C 63 % 1012,7 hPa 0,0 mm 0,0 km/h (0 Bft) O 90 0 min 0 UV-I 42 W/m 3,2 km/h (1 Bft)
19.02.2007 17:20 6,0 C 64 % 1012,7 hPa 0,0 mm 0,0 km/h (0 Bft) O 90 10 min 0 UV-I 30 W/m 4,8 km/h (1 Bft)
19.02.2007 17:30 5,8 C 64 % 1012,7 hPa 0,0 mm 1,6 km/h (1 Bft) O 90 10 min 0 UV-I 19 W/m 4,8 km/h (1 Bft)
19.02.2007 17:40 5,6 C 65 % 1012,7 hPa 0,0 mm 0,0 km/h (0 Bft) O 90 0 min 0 UV-I 9 W/m 3,2 km/h (1 Bft)
19.02.2007 17:50 5,4 C 66 % 1012,7 hPa 0,0 mm 0,0 km/h (0 Bft) O-NO 67 0 min 0 UV-I 0 W/m 3,2 km/h (1 Bft)
19.02.2007 18:00 5,2 C 66 % 1012,8 hPa 0,0 mm 0,0 km/h (0 Bft) O 90 0 min 0 UV-I 0 W/m 3,2 km/h (1 Bft)
19.02.2007 18:10 5,1 C 67 % 1012,7 hPa 0,0 mm 0,0 km/h (0 Bft) O 90 0 min 0 UV-I 0 W/m 3,2 km/h (1 Bft)
19.02.2007 18:20 4,9 C 68 % 1012,7 hPa 0,0 mm 0,0 km/h (0 Bft) O 90 0 min 0 UV-I 0 W/m 3,2 km/h (1 Bft)
19.02.2007 18:30 4,6 C 69 % 1012,7 hPa 0,0 mm 0,0 km/h (0 Bft) O 90 0 min 0 UV-I 0 W/m 1,6 km/h (1 Bft)
19.02.2007 18:40 4,4 C 70 % 1012,7 hPa 0,0 mm 0,0 km/h (0 Bft) O 90 0 min 0 UV-I 0 W/m 1,6 km/h (1 Bft)
19.02.2007 18:50 4,3 C 71 % 1012,6 hPa 0,0 mm 0,0 km/h (0 Bft) O 90 0 min 0 UV-I 0 W/m 1,6 km/h (1 Bft)
19.02.2007 19:00 4,3 C 70 % 1012,4 hPa 0,0 mm 0,0 km/h (0 Bft) O-SO 112 0 min 0 UV-I 0 W/m 3,2 km/h (1 Bft)
19.02.2007 19:10 4,4 C 69 % 1012,5 hPa 0,0 mm 0,0 km/h (0 Bft) O 90 0 min 0 UV-I 0 W/m 3,2 km/h (1 Bft)
19.02.2007 19:20 4,4 C 69 % 1012,6 hPa 0,0 mm 0,0 km/h (0 Bft) O 90 0 min 0 UV-I 0 W/m 3,2 km/h (1 Bft)
19.02.2007 19:30 4,4 C 69 % 1012,5 hPa 0,0 mm 0,0 km/h (0 Bft) O-NO 67 0 min 0 UV-I 0 W/m 3,2 km/h (1 Bft)
19.02.2007 19:40 4,3 C 69 % 1012,2 hPa 0,0 mm 0,0 km/h (0 Bft) O 90 0 min 0 UV-I 0 W/m 3,2 km/h (1 Bft)
19.02.2007 19:50 4,3 C 70 % 1012,1 hPa 0,0 mm 0,0 km/h (0 Bft) O 90 0 min 0 UV-I 0 W/m 4,8 km/h (1 Bft)
19.02.2007 20:00 4,4 C 69 % 1012,2 hPa 0,0 mm 0,0 km/h (0 Bft) O 90 0 min 0 UV-I 0 W/m 3,2 km/h (1 Bft)
19.02.2007 20:10 4,4 C 69 % 1012,1 hPa 0,0 mm 0,0 km/h (0 Bft) O 90 0 min 0 UV-I 0 W/m 3,2 km/h (1 Bft)
19.02.2007 20:20 4,4 C 69 % 1012,0 hPa 0,0 mm 0,0 km/h (0 Bft) SO 135 0 min 0 UV-I 0 W/m 1,6 km/h (1 Bft)
19.02.2007 20:30 4,4 C 70 % 1011,8 hPa 0,0 mm 0,0 km/h (0 Bft) O 90 0 min 0 UV-I 0 W/m 4,8 km/h (1 Bft)
19.02.2007 20:40 4,4 C 71 % 1011,7 hPa 0,0 mm 1,6 km/h (1 Bft) SO 135 0 min 0 UV-I 0 W/m 4,8 km/h (1 Bft)
19.02.2007 20:50 4,3 C 71 % 1011,6 hPa 0,0 mm 1,6 km/h (1 Bft) SO 135 0 min 0 UV-I 0 W/m 9,7 km/h (2 Bft)
19.02.2007 21:00 4,3 C 72 % 1011,6 hPa 0,0 mm 0,0 km/h (0 Bft) O 90 0 min 0 UV-I 0 W/m 8,0 km/h (2 Bft)
19.02.2007 21:10 4,2 C 73 % 1011,6 hPa 0,0 mm 1,6 km/h (1 Bft) O 90 0 min 0 UV-I 0 W/m 8,0 km/h (2 Bft)
19.02.2007 21:20 4,1 C 73 % 1011,7 hPa 0,0 mm 0,0 km/h (0 Bft) S-SO 157 0 min 0 UV-I 0 W/m 3,2 km/h (1 Bft)
19.02.2007 21:30 4,0 C 73 % 1011,7 hPa 0,0 mm 0,0 km/h (0 Bft) S 180 0 min 0 UV-I 0 W/m 1,6 km/h (1 Bft)
19.02.2007 21:40 3,8 C 74 % 1011,8 hPa 0,0 mm 0,0 km/h (0 Bft) S-SO 157 0 min 0 UV-I 0 W/m 1,6 km/h (1 Bft)
19.02.2007 21:50 3,7 C 75 % 1011,7 hPa 0,0 mm 0,0 km/h (0 Bft) S-SO 157 0 min 0 UV-I 0 W/m 1,6 km/h (1 Bft)
19.02.2007 22:00 3,6 C 75 % 1011,7 hPa 0,0 mm 0,0 km/h (0 Bft) N 0 0 min 0 UV-I 0 W/m 0,0 km/h (0 Bft)
19.02.2007 22:10 3,4 C 76 % 1011,5 hPa 0,0 mm 0,0 km/h (0 Bft) SO 135 0 min 0 UV-I 0 W/m 1,6 km/h (1 Bft)
19.02.2007 22:20 3,3 C 77 % 1011,4 hPa 0,0 mm 0,0 km/h (0 Bft) N 0 0 min 0 UV-I 0 W/m 0,0 km/h (0 Bft)
19.02.2007 22:30 3,2 C 77 % 1011,5 hPa 0,0 mm 0,0 km/h (0 Bft) N 0 0 min 0 UV-I 0 W/m 0,0 km/h (0 Bft)
19.02.2007 22:40 3,1 C 77 % 1011,4 hPa 0,0 mm 0,0 km/h (0 Bft) N 0 0 min 0 UV-I 0 W/m 0,0 km/h (0 Bft)
19.02.2007 22:50 2,9 C 79 % 1011,4 hPa 0,0 mm 0,0 km/h (0 Bft) N 0 0 min 0 UV-I 0 W/m 0,0 km/h (0 Bft)
19.02.2007 23:00 2,8 C 79 % 1011,4 hPa 0,0 mm 0,0 km/h (0 Bft) N 0 0 min 0 UV-I 0 W/m 0,0 km/h (0 Bft)
19.02.2007 23:10 2,8 C 80 % 1011,3 hPa 0,0 mm 0,0 km/h (0 Bft) N 0 0 min 0 UV-I 0 W/m 0,0 km/h (0 Bft)
19.02.2007 23:25 2,7 C 81 % 1011,3 hPa 0,0 mm 0,0 km/h (0 Bft) SO 133 0 min 0 UV-I 0 W/m 0,0 km/h (0 Bft)
19.02.2007 23:30 2,7 C 81 % 1011,3 hPa 0,0 mm 0,0 km/h (0 Bft) SO 133 0 min 0 UV-I 0 W/m 0,0 km/h (0 Bft)
19.02.2007 23:35 2,7 C 81 % 1011,3 hPa 0,0 mm 0,0 km/h (0 Bft) SO 133 0 min 0 UV-I 0 W/m 0,0 km/h (0 Bft)
19.02.2007 23:40 2,8 C 81 % 1011,1 hPa 0,0 mm 0,0 km/h (0 Bft) SO 133 0 min 0 UV-I 0 W/m 0,0 km/h (0 Bft)
19.02.2007 23:45 2,8 C 81 % 1011,1 hPa 0,0 mm 0,0 km/h (0 Bft) SO 133 0 min 0 UV-I 0 W/m 0,0 km/h (0 Bft)
19.02.2007 23:50 2,8 C 81 % 1011,0 hPa 0,0 mm 0,0 km/h (0 Bft) SO 133 0 min 0 UV-I 0 W/m 0,0 km/h (0 Bft)
19.02.2007 23:55 2,8 C 81 % 1011,1 hPa 0,0 mm 0,0 km/h (0 Bft) SO 133 0 min 0 UV-I 0 W/m 0,0 km/h (0 Bft)
_ Min-Zeit 23:10 14:00 23:50 - 00:15 - - - - - 00:15
Minimum _ 2,7 C 57 % 1011,0 hPa - 0,0 km/h (0 Bft) - - - - - 0,0 km/h (0 Bft)
_ Max-Zeit 14:30 08:40 07:20 00:00 11:40 - - 10:00 10:00 10:20 20:50
Maximum _ 7,1 C 92 % 1016,1 hPa 0,0 mm 1,6 km/h
O (1 Bft)
- - 10 min 1 UV-I 371 W/m 9,7 km/h
N (2 Bft)
Durchschnitt _ 4,7 C 77 % 1014,2 hPa #0,0 mm 0,2 km/h (0 Bft) O - #3:50 h 1 UV-I 164 W/m 2,0 km/h (1 Bft)